sensor_id;sensor_type;location;lat;lon;timestamp;P1;durP1;ratioP1;P2;durP2;ratioP2
78322;SDS011;67583;50.616;-3.404;2023-08-06T00:01:42;10.15;;;4.43;;
78322;SDS011;67583;50.616;-3.404;2023-08-06T00:04:07;10.20;;;3.20;;
78322;SDS011;67583;50.616;-3.404;2023-08-06T00:06:33;7.63;;;2.97;;
78322;SDS011;67583;50.616;-3.404;2023-08-06T00:08:58;5.65;;;3.33;;
78322;SDS011;67583;50.616;-3.404;2023-08-06T00:11:24;7.30;;;2.70;;
78322;SDS011;67583;50.616;-3.404;2023-08-06T00:13:49;12.65;;;3.17;;
78322;SDS011;67583;50.616;-3.404;2023-08-06T00:16:14;3.92;;;2.72;;
78322;SDS011;67583;50.616;-3.404;2023-08-06T00:18:40;8.20;;;2.70;;
78322;SDS011;67583;50.616;-3.404;2023-08-06T00:21:05;10.18;;;3.00;;
78322;SDS011;67583;50.616;-3.404;2023-08-06T00:23:31;8.57;;;3.95;;
78322;SDS011;67583;50.616;-3.404;2023-08-06T00:25:56;8.07;;;2.75;;
78322;SDS011;67583;50.616;-3.404;2023-08-06T00:28:21;5.88;;;2.85;;
78322;SDS011;67583;50.616;-3.404;2023-08-06T00:30:52;6.82;;;2.45;;
78322;SDS011;67583;50.616;-3.404;2023-08-06T00:33:18;6.93;;;2.65;;
78322;SDS011;67583;50.616;-3.404;2023-08-06T00:35:43;9.60;;;3.00;;
78322;SDS011;67583;50.616;-3.404;2023-08-06T00:38:08;7.70;;;2.95;;
78322;SDS011;67583;50.616;-3.404;2023-08-06T00:40:34;5.57;;;2.40;;
78322;SDS011;67583;50.616;-3.404;2023-08-06T00:42:59;7.95;;;3.08;;
78322;SDS011;67583;50.616;-3.404;2023-08-06T00:45:25;10.18;;;3.25;;
78322;SDS011;67583;50.616;-3.404;2023-08-06T00:47:51;9.45;;;2.60;;
78322;SDS011;67583;50.616;-3.404;2023-08-06T00:50:16;6.97;;;2.67;;
78322;SDS011;67583;50.616;-3.404;2023-08-06T00:52:42;6.28;;;2.67;;
78322;SDS011;67583;50.616;-3.404;2023-08-06T00:55:08;6.57;;;2.63;;
78322;SDS011;67583;50.616;-3.404;2023-08-06T00:57:33;4.68;;;2.67;;
78322;SDS011;67583;50.616;-3.404;2023-08-06T00:59:59;5.28;;;2.65;;
78322;SDS011;67583;50.616;-3.404;2023-08-06T01:02:24;5.45;;;2.53;;
78322;SDS011;67583;50.616;-3.404;2023-08-06T01:04:50;8.18;;;3.08;;
78322;SDS011;67583;50.616;-3.404;2023-08-06T01:07:27;4.07;;;2.58;;
78322;SDS011;67583;50.616;-3.404;2023-08-06T01:12:58;3.92;;;2.67;;
78322;SDS011;67583;50.616;-3.404;2023-08-06T01:15:28;7.82;;;3.08;;
78322;SDS011;67583;50.616;-3.404;2023-08-06T01:17:54;7.20;;;3.15;;
78322;SDS011;67583;50.616;-3.404;2023-08-06T01:20:20;6.35;;;3.45;;
78322;SDS011;67583;50.616;-3.404;2023-08-06T01:22:46;9.60;;;3.25;;
78322;SDS011;67583;50.616;-3.404;2023-08-06T01:25:11;9.68;;;3.03;;
78322;SDS011;67583;50.616;-3.404;2023-08-06T01:30:12;5.38;;;2.40;;
78322;SDS011;67583;50.616;-3.404;2023-08-06T01:32:42;5.88;;;3.78;;
78322;SDS011;67583;50.616;-3.404;2023-08-06T01:35:10;5.63;;;2.80;;
78322;SDS011;67583;50.616;-3.404;2023-08-06T01:37:37;10.95;;;2.90;;
78322;SDS011;67583;50.616;-3.404;2023-08-06T01:40:12;8.10;;;2.70;;
78322;SDS011;67583;50.616;-3.404;2023-08-06T01:42:38;7.75;;;2.65;;
78322;SDS011;67583;50.616;-3.404;2023-08-06T01:45:04;8.27;;;2.90;;
78322;SDS011;67583;50.616;-3.404;2023-08-06T01:47:31;6.53;;;3.03;;
78322;SDS011;67583;50.616;-3.404;2023-08-06T01:49:56;6.45;;;2.85;;
78322;SDS011;67583;50.616;-3.404;2023-08-06T01:52:21;8.25;;;3.38;;
78322;SDS011;67583;50.616;-3.404;2023-08-06T01:54:50;7.43;;;2.97;;
78322;SDS011;67583;50.616;-3.404;2023-08-06T01:57:15;4.65;;;2.63;;
78322;SDS011;67583;50.616;-3.404;2023-08-06T01:59:40;5.70;;;2.45;;
78322;SDS011;67583;50.616;-3.404;2023-08-06T02:02:06;5.05;;;2.65;;
78322;SDS011;67583;50.616;-3.404;2023-08-06T02:04:31;4.50;;;2.80;;
78322;SDS011;67583;50.616;-3.404;2023-08-06T02:06:56;6.50;;;2.90;;
78322;SDS011;67583;50.616;-3.404;2023-08-06T02:09:22;5.22;;;2.60;;
78322;SDS011;67583;50.616;-3.404;2023-08-06T02:11:47;5.88;;;2.65;;
78322;SDS011;67583;50.616;-3.404;2023-08-06T02:14:12;6.13;;;2.90;;
78322;SDS011;67583;50.616;-3.404;2023-08-06T02:16:38;5.95;;;2.67;;
78322;SDS011;67583;50.616;-3.404;2023-08-06T02:19:03;8.63;;;3.00;;
78322;SDS011;67583;50.616;-3.404;2023-08-06T02:21:29;10.85;;;3.15;;
78322;SDS011;67583;50.616;-3.404;2023-08-06T02:23:54;7.63;;;2.92;;
78322;SDS011;67583;50.616;-3.404;2023-08-06T02:26:20;7.38;;;2.97;;
78322;SDS011;67583;50.616;-3.404;2023-08-06T02:28:45;6.68;;;2.90;;
78322;SDS011;67583;50.616;-3.404;2023-08-06T02:31:10;7.18;;;2.97;;
78322;SDS011;67583;50.616;-3.404;2023-08-06T02:33:36;10.90;;;3.15;;
78322;SDS011;67583;50.616;-3.404;2023-08-06T02:36:02;7.22;;;2.65;;
78322;SDS011;67583;50.616;-3.404;2023-08-06T02:38:28;4.93;;;2.38;;
78322;SDS011;67583;50.616;-3.404;2023-08-06T02:40:54;7.57;;;3.22;;
78322;SDS011;67583;50.616;-3.404;2023-08-06T02:43:19;7.82;;;2.83;;
78322;SDS011;67583;50.616;-3.404;2023-08-06T02:45:45;8.15;;;2.63;;
78322;SDS011;67583;50.616;-3.404;2023-08-06T02:48:10;6.55;;;2.60;;
78322;SDS011;67583;50.616;-3.404;2023-08-06T02:50:39;9.07;;;2.92;;
78322;SDS011;67583;50.616;-3.404;2023-08-06T02:53:05;4.97;;;2.63;;
78322;SDS011;67583;50.616;-3.404;2023-08-06T02:55:31;4.63;;;2.50;;
78322;SDS011;67583;50.616;-3.404;2023-08-06T02:57:57;5.53;;;2.88;;
78322;SDS011;67583;50.616;-3.404;2023-08-06T03:00:22;7.65;;;2.45;;
78322;SDS011;67583;50.616;-3.404;2023-08-06T03:02:48;12.23;;;3.00;;
78322;SDS011;67583;50.616;-3.404;2023-08-06T03:05:13;6.32;;;2.33;;
78322;SDS011;67583;50.616;-3.404;2023-08-06T03:07:38;11.75;;;2.63;;
78322;SDS011;67583;50.616;-3.404;2023-08-06T03:10:04;5.65;;;2.22;;
78322;SDS011;67583;50.616;-3.404;2023-08-06T03:12:30;5.25;;;2.83;;
78322;SDS011;67583;50.616;-3.404;2023-08-06T03:14:55;7.00;;;2.65;;
78322;SDS011;67583;50.616;-3.404;2023-08-06T03:17:20;7.07;;;2.33;;
78322;SDS011;67583;50.616;-3.404;2023-08-06T03:19:46;6.40;;;2.72;;
78322;SDS011;67583;50.616;-3.404;2023-08-06T03:22:11;6.10;;;3.38;;
78322;SDS011;67583;50.616;-3.404;2023-08-06T03:24:37;6.55;;;2.30;;
78322;SDS011;67583;50.616;-3.404;2023-08-06T03:27:02;6.10;;;2.58;;
78322;SDS011;67583;50.616;-3.404;2023-08-06T03:29:27;5.80;;;2.85;;
78322;SDS011;67583;50.616;-3.404;2023-08-06T03:31:53;7.28;;;3.65;;
78322;SDS011;67583;50.616;-3.404;2023-08-06T03:34:19;4.55;;;2.47;;
78322;SDS011;67583;50.616;-3.404;2023-08-06T03:36:44;11.35;;;2.45;;
78322;SDS011;67583;50.616;-3.404;2023-08-06T03:39:10;6.32;;;2.88;;
78322;SDS011;67583;50.616;-3.404;2023-08-06T03:41:35;9.20;;;2.63;;
78322;SDS011;67583;50.616;-3.404;2023-08-06T03:44:00;5.10;;;2.03;;
78322;SDS011;67583;50.616;-3.404;2023-08-06T03:46:28;6.28;;;2.50;;
78322;SDS011;67583;50.616;-3.404;2023-08-06T03:48:54;7.32;;;2.50;;
78322;SDS011;67583;50.616;-3.404;2023-08-06T03:51:19;4.57;;;2.70;;
78322;SDS011;67583;50.616;-3.404;2023-08-06T03:53:45;11.45;;;2.88;;
78322;SDS011;67583;50.616;-3.404;2023-08-06T03:56:10;3.58;;;2.25;;
78322;SDS011;67583;50.616;-3.404;2023-08-06T03:58:35;4.53;;;2.30;;
78322;SDS011;67583;50.616;-3.404;2023-08-06T04:01:01;7.65;;;2.92;;
78322;SDS011;67583;50.616;-3.404;2023-08-06T04:03:27;7.65;;;2.90;;
78322;SDS011;67583;50.616;-3.404;2023-08-06T04:05:53;6.32;;;2.40;;
78322;SDS011;67583;50.616;-3.404;2023-08-06T04:08:19;5.53;;;2.47;;
78322;SDS011;67583;50.616;-3.404;2023-08-06T04:10:44;5.22;;;2.33;;
78322;SDS011;67583;50.616;-3.404;2023-08-06T04:13:09;4.43;;;2.75;;
78322;SDS011;67583;50.616;-3.404;2023-08-06T04:15:35;6.68;;;2.70;;
78322;SDS011;67583;50.616;-3.404;2023-08-06T04:18:00;4.10;;;2.13;;
78322;SDS011;67583;50.616;-3.404;2023-08-06T04:20:26;11.25;;;2.75;;
78322;SDS011;67583;50.616;-3.404;2023-08-06T04:22:53;5.13;;;2.38;;
78322;SDS011;67583;50.616;-3.404;2023-08-06T04:25:19;5.32;;;2.22;;
78322;SDS011;67583;50.616;-3.404;2023-08-06T04:27:49;4.10;;;2.20;;
78322;SDS011;67583;50.616;-3.404;2023-08-06T04:30:14;9.80;;;2.40;;
78322;SDS011;67583;50.616;-3.404;2023-08-06T04:32:40;5.68;;;2.40;;
78322;SDS011;67583;50.616;-3.404;2023-08-06T04:35:05;5.70;;;2.65;;
78322;SDS011;67583;50.616;-3.404;2023-08-06T04:37:31;5.28;;;2.20;;
78322;SDS011;67583;50.616;-3.404;2023-08-06T04:39:56;5.43;;;2.40;;
78322;SDS011;67583;50.616;-3.404;2023-08-06T04:42:22;6.35;;;2.40;;
78322;SDS011;67583;50.616;-3.404;2023-08-06T04:44:47;4.85;;;2.90;;
78322;SDS011;67583;50.616;-3.404;2023-08-06T04:47:13;6.00;;;2.20;;
78322;SDS011;67583;50.616;-3.404;2023-08-06T04:49:38;5.68;;;2.00;;
78322;SDS011;67583;50.616;-3.404;2023-08-06T04:52:04;6.07;;;2.15;;
78322;SDS011;67583;50.616;-3.404;2023-08-06T04:54:29;5.32;;;2.10;;
78322;SDS011;67583;50.616;-3.404;2023-08-06T04:56:55;6.63;;;2.38;;
78322;SDS011;67583;50.616;-3.404;2023-08-06T04:59:20;5.70;;;2.53;;
78322;SDS011;67583;50.616;-3.404;2023-08-06T05:01:45;2.67;;;1.63;;
78322;SDS011;67583;50.616;-3.404;2023-08-06T05:04:11;7.18;;;2.47;;
78322;SDS011;67583;50.616;-3.404;2023-08-06T05:06:36;6.32;;;2.47;;
78322;SDS011;67583;50.616;-3.404;2023-08-06T05:09:03;6.88;;;2.63;;
78322;SDS011;67583;50.616;-3.404;2023-08-06T05:11:29;4.38;;;2.10;;
78322;SDS011;67583;50.616;-3.404;2023-08-06T05:13:55;6.68;;;2.40;;
78322;SDS011;67583;50.616;-3.404;2023-08-06T05:16:20;3.40;;;1.98;;
78322;SDS011;67583;50.616;-3.404;2023-08-06T05:18:46;7.95;;;2.70;;
78322;SDS011;67583;50.616;-3.404;2023-08-06T05:21:13;7.88;;;2.25;;
78322;SDS011;67583;50.616;-3.404;2023-08-06T05:23:41;3.15;;;2.35;;
78322;SDS011;67583;50.616;-3.404;2023-08-06T05:26:07;3.10;;;1.90;;
78322;SDS011;67583;50.616;-3.404;2023-08-06T05:28:32;6.05;;;2.00;;
78322;SDS011;67583;50.616;-3.404;2023-08-06T05:30:57;6.88;;;2.83;;
78322;SDS011;67583;50.616;-3.404;2023-08-06T05:33:23;4.57;;;2.40;;
78322;SDS011;67583;50.616;-3.404;2023-08-06T05:35:49;5.25;;;2.15;;
78322;SDS011;67583;50.616;-3.404;2023-08-06T05:38:14;8.18;;;2.40;;
78322;SDS011;67583;50.616;-3.404;2023-08-06T05:40:41;3.15;;;2.10;;
78322;SDS011;67583;50.616;-3.404;2023-08-06T05:43:07;6.68;;;2.75;;
78322;SDS011;67583;50.616;-3.404;2023-08-06T05:45:32;5.07;;;1.90;;
78322;SDS011;67583;50.616;-3.404;2023-08-06T05:47:57;6.90;;;2.47;;
78322;SDS011;67583;50.616;-3.404;2023-08-06T05:50:23;3.72;;;2.38;;
78322;SDS011;67583;50.616;-3.404;2023-08-06T05:52:49;3.60;;;2.13;;
78322;SDS011;67583;50.616;-3.404;2023-08-06T05:55:14;3.28;;;1.83;;
78322;SDS011;67583;50.616;-3.404;2023-08-06T05:57:39;2.75;;;1.75;;
78322;SDS011;67583;50.616;-3.404;2023-08-06T06:00:05;6.75;;;2.13;;
78322;SDS011;67583;50.616;-3.404;2023-08-06T06:02:31;3.78;;;1.90;;
78322;SDS011;67583;50.616;-3.404;2023-08-06T06:04:57;4.28;;;2.00;;
78322;SDS011;67583;50.616;-3.404;2023-08-06T06:07:22;4.07;;;2.28;;
78322;SDS011;67583;50.616;-3.404;2023-08-06T06:09:47;6.72;;;2.42;;
78322;SDS011;67583;50.616;-3.404;2023-08-06T06:12:13;3.75;;;1.75;;
78322;SDS011;67583;50.616;-3.404;2023-08-06T06:14:38;5.97;;;2.30;;
78322;SDS011;67583;50.616;-3.404;2023-08-06T06:17:04;2.85;;;1.83;;
78322;SDS011;67583;50.616;-3.404;2023-08-06T06:19:29;10.27;;;2.13;;
78322;SDS011;67583;50.616;-3.404;2023-08-06T06:21:54;3.53;;;2.00;;
78322;SDS011;67583;50.616;-3.404;2023-08-06T06:24:22;7.22;;;2.17;;
78322;SDS011;67583;50.616;-3.404;2023-08-06T06:26:48;5.95;;;2.13;;
78322;SDS011;67583;50.616;-3.404;2023-08-06T06:29:13;5.80;;;1.85;;
78322;SDS011;67583;50.616;-3.404;2023-08-06T06:31:38;5.13;;;2.13;;
78322;SDS011;67583;50.616;-3.404;2023-08-06T06:34:04;3.38;;;1.83;;
78322;SDS011;67583;50.616;-3.404;2023-08-06T06:36:29;2.88;;;1.90;;
78322;SDS011;67583;50.616;-3.404;2023-08-06T06:38:55;4.05;;;2.13;;
78322;SDS011;67583;50.616;-3.404;2023-08-06T06:41:20;5.03;;;2.03;;
78322;SDS011;67583;50.616;-3.404;2023-08-06T06:43:45;7.88;;;2.25;;
78322;SDS011;67583;50.616;-3.404;2023-08-06T06:46:11;6.85;;;1.80;;
78322;SDS011;67583;50.616;-3.404;2023-08-06T06:48:36;3.03;;;1.70;;
78322;SDS011;67583;50.616;-3.404;2023-08-06T06:51:01;4.65;;;2.90;;
78322;SDS011;67583;50.616;-3.404;2023-08-06T06:53:28;8.05;;;1.98;;
78322;SDS011;67583;50.616;-3.404;2023-08-06T06:55:54;8.32;;;2.17;;
78322;SDS011;67583;50.616;-3.404;2023-08-06T06:58:19;5.38;;;1.85;;
78322;SDS011;67583;50.616;-3.404;2023-08-06T07:00:46;2.58;;;1.52;;
78322;SDS011;67583;50.616;-3.404;2023-08-06T07:03:12;4.38;;;1.58;;
78322;SDS011;67583;50.616;-3.404;2023-08-06T07:05:37;4.88;;;1.90;;
78322;SDS011;67583;50.616;-3.404;2023-08-06T07:08:03;5.60;;;1.80;;
78322;SDS011;67583;50.616;-3.404;2023-08-06T07:10:28;3.45;;;1.90;;
78322;SDS011;67583;50.616;-3.404;2023-08-06T07:12:54;7.43;;;1.80;;
78322;SDS011;67583;50.616;-3.404;2023-08-06T07:15:19;6.82;;;2.00;;
78322;SDS011;67583;50.616;-3.404;2023-08-06T07:17:45;3.95;;;1.70;;
78322;SDS011;67583;50.616;-3.404;2023-08-06T07:20:10;2.28;;;1.35;;
78322;SDS011;67583;50.616;-3.404;2023-08-06T07:22:36;4.50;;;1.50;;
78322;SDS011;67583;50.616;-3.404;2023-08-06T07:25:01;5.80;;;2.20;;
78322;SDS011;67583;50.616;-3.404;2023-08-06T07:27:27;2.95;;;1.45;;
78322;SDS011;67583;50.616;-3.404;2023-08-06T07:29:52;2.80;;;1.73;;
78322;SDS011;67583;50.616;-3.404;2023-08-06T07:32:18;3.17;;;1.40;;
78322;SDS011;67583;50.616;-3.404;2023-08-06T07:34:43;3.97;;;1.70;;
78322;SDS011;67583;50.616;-3.404;2023-08-06T07:37:09;2.22;;;1.33;;
78322;SDS011;67583;50.616;-3.404;2023-08-06T07:39:34;4.15;;;1.60;;
78322;SDS011;67583;50.616;-3.404;2023-08-06T07:42:00;8.25;;;1.90;;
78322;SDS011;67583;50.616;-3.404;2023-08-06T07:44:27;2.58;;;1.40;;
78322;SDS011;67583;50.616;-3.404;2023-08-06T07:46:52;6.40;;;1.45;;
78322;SDS011;67583;50.616;-3.404;2023-08-06T07:49:18;4.43;;;1.50;;
78322;SDS011;67583;50.616;-3.404;2023-08-06T07:51:43;2.63;;;1.60;;
78322;SDS011;67583;50.616;-3.404;2023-08-06T07:54:08;4.53;;;1.48;;
78322;SDS011;67583;50.616;-3.404;2023-08-06T07:56:34;5.68;;;1.52;;
78322;SDS011;67583;50.616;-3.404;2023-08-06T07:59:01;5.88;;;2.15;;
78322;SDS011;67583;50.616;-3.404;2023-08-06T08:01:27;2.97;;;1.60;;
78322;SDS011;67583;50.616;-3.404;2023-08-06T08:03:52;4.13;;;1.80;;
78322;SDS011;67583;50.616;-3.404;2023-08-06T08:06:17;4.75;;;1.60;;
78322;SDS011;67583;50.616;-3.404;2023-08-06T08:08:43;2.67;;;1.33;;
78322;SDS011;67583;50.616;-3.404;2023-08-06T08:11:08;3.92;;;1.33;;
78322;SDS011;67583;50.616;-3.404;2023-08-06T08:13:34;3.38;;;1.55;;
78322;SDS011;67583;50.616;-3.404;2023-08-06T08:16:00;4.03;;;1.25;;
78322;SDS011;67583;50.616;-3.404;2023-08-06T08:18:25;3.63;;;1.63;;
78322;SDS011;67583;50.616;-3.404;2023-08-06T08:20:51;2.95;;;1.33;;
78322;SDS011;67583;50.616;-3.404;2023-08-06T08:23:16;4.32;;;1.42;;
78322;SDS011;67583;50.616;-3.404;2023-08-06T08:25:42;2.45;;;1.33;;
78322;SDS011;67583;50.616;-3.404;2023-08-06T08:28:07;3.35;;;1.70;;
78322;SDS011;67583;50.616;-3.404;2023-08-06T08:30:33;2.17;;;1.38;;
78322;SDS011;67583;50.616;-3.404;2023-08-06T08:32:58;4.43;;;1.40;;
78322;SDS011;67583;50.616;-3.404;2023-08-06T08:35:24;2.42;;;1.30;;
78322;SDS011;67583;50.616;-3.404;2023-08-06T08:37:49;3.75;;;1.25;;
78322;SDS011;67583;50.616;-3.404;2023-08-06T08:40:15;1.88;;;1.20;;
78322;SDS011;67583;50.616;-3.404;2023-08-06T08:42:41;3.45;;;1.50;;
78322;SDS011;67583;50.616;-3.404;2023-08-06T08:45:11;1.90;;;1.27;;
78322;SDS011;67583;50.616;-3.404;2023-08-06T08:47:46;3.08;;;1.60;;
78322;SDS011;67583;50.616;-3.404;2023-08-06T08:50:16;2.65;;;1.52;;
78322;SDS011;67583;50.616;-3.404;2023-08-06T08:52:45;1.52;;;1.02;;
78322;SDS011;67583;50.616;-3.404;2023-08-06T08:55:14;6.40;;;1.65;;
78322;SDS011;67583;50.616;-3.404;2023-08-06T08:57:40;3.30;;;1.60;;
78322;SDS011;67583;50.616;-3.404;2023-08-06T09:00:05;2.88;;;1.60;;
78322;SDS011;67583;50.616;-3.404;2023-08-06T09:02:32;4.00;;;1.45;;
78322;SDS011;67583;50.616;-3.404;2023-08-06T09:04:58;2.42;;;1.30;;
78322;SDS011;67583;50.616;-3.404;2023-08-06T09:07:27;2.42;;;1.30;;
78322;SDS011;67583;50.616;-3.404;2023-08-06T09:09:56;2.83;;;1.52;;
78322;SDS011;67583;50.616;-3.404;2023-08-06T09:12:22;2.65;;;1.60;;
78322;SDS011;67583;50.616;-3.404;2023-08-06T09:14:47;3.28;;;1.50;;
78322;SDS011;67583;50.616;-3.404;2023-08-06T09:17:12;3.67;;;1.70;;
78322;SDS011;67583;50.616;-3.404;2023-08-06T09:19:41;3.08;;;1.30;;
78322;SDS011;67583;50.616;-3.404;2023-08-06T09:22:11;1.85;;;1.58;;
78322;SDS011;67583;50.616;-3.404;2023-08-06T09:24:39;5.30;;;1.55;;
78322;SDS011;67583;50.616;-3.404;2023-08-06T09:27:06;3.42;;;1.85;;
78322;SDS011;67583;50.616;-3.404;2023-08-06T09:29:36;3.78;;;1.27;;
78322;SDS011;67583;50.616;-3.404;2023-08-06T09:32:05;2.45;;;1.48;;
78322;SDS011;67583;50.616;-3.404;2023-08-06T09:34:31;2.80;;;1.50;;
78322;SDS011;67583;50.616;-3.404;2023-08-06T09:36:56;4.85;;;1.58;;
78322;SDS011;67583;50.616;-3.404;2023-08-06T09:39:26;4.05;;;1.85;;
78322;SDS011;67583;50.616;-3.404;2023-08-06T09:41:55;3.15;;;1.75;;
78322;SDS011;67583;50.616;-3.404;2023-08-06T09:44:21;7.93;;;2.58;;
78322;SDS011;67583;50.616;-3.404;2023-08-06T09:46:49;3.00;;;1.50;;
78322;SDS011;67583;50.616;-3.404;2023-08-06T09:49:20;2.83;;;1.60;;
78322;SDS011;67583;50.616;-3.404;2023-08-06T09:51:47;3.85;;;1.58;;
78322;SDS011;67583;50.616;-3.404;2023-08-06T09:54:16;2.55;;;1.23;;
78322;SDS011;67583;50.616;-3.404;2023-08-06T09:56:42;3.08;;;1.70;;
78322;SDS011;67583;50.616;-3.404;2023-08-06T09:59:08;2.53;;;1.52;;
78322;SDS011;67583;50.616;-3.404;2023-08-06T10:01:34;2.15;;;1.80;;
78322;SDS011;67583;50.616;-3.404;2023-08-06T10:04:00;3.40;;;1.83;;
78322;SDS011;67583;50.616;-3.404;2023-08-06T10:06:31;4.25;;;1.40;;
78322;SDS011;67583;50.616;-3.404;2023-08-06T10:11:29;5.45;;;1.63;;
78322;SDS011;67583;50.616;-3.404;2023-08-06T10:14:04;1.83;;;1.30;;
78322;SDS011;67583;50.616;-3.404;2023-08-06T10:16:39;1.88;;;1.30;;
78322;SDS011;67583;50.616;-3.404;2023-08-06T10:19:10;2.28;;;1.35;;
78322;SDS011;67583;50.616;-3.404;2023-08-06T10:21:41;4.20;;;1.52;;
78322;SDS011;67583;50.616;-3.404;2023-08-06T10:24:32;3.15;;;1.33;;
78322;SDS011;67583;50.616;-3.404;2023-08-06T10:27:13;5.07;;;1.65;;
78322;SDS011;67583;50.616;-3.404;2023-08-06T10:29:38;4.25;;;1.90;;
78322;SDS011;67583;50.616;-3.404;2023-08-06T10:32:04;2.50;;;1.33;;
78322;SDS011;67583;50.616;-3.404;2023-08-06T10:37:21;2.85;;;1.23;;
78322;SDS011;67583;50.616;-3.404;2023-08-06T10:39:48;3.47;;;1.42;;
78322;SDS011;67583;50.616;-3.404;2023-08-06T10:42:22;3.72;;;1.50;;
78322;SDS011;67583;50.616;-3.404;2023-08-06T10:47:40;2.58;;;1.27;;
78322;SDS011;67583;50.616;-3.404;2023-08-06T10:50:07;2.88;;;1.55;;
78322;SDS011;67583;50.616;-3.404;2023-08-06T10:52:36;2.67;;;1.23;;
78322;SDS011;67583;50.616;-3.404;2023-08-06T10:55:01;4.65;;;1.65;;
78322;SDS011;67583;50.616;-3.404;2023-08-06T10:57:27;3.35;;;1.45;;
78322;SDS011;67583;50.616;-3.404;2023-08-06T10:59:52;2.75;;;1.77;;
78322;SDS011;67583;50.616;-3.404;2023-08-06T11:02:17;2.33;;;1.52;;
78322;SDS011;67583;50.616;-3.404;2023-08-06T11:04:43;2.60;;;1.33;;
78322;SDS011;67583;50.616;-3.404;2023-08-06T11:07:08;4.05;;;1.60;;
78322;SDS011;67583;50.616;-3.404;2023-08-06T11:09:33;3.97;;;1.40;;
78322;SDS011;67583;50.616;-3.404;2023-08-06T11:11:59;2.40;;;1.50;;
78322;SDS011;67583;50.616;-3.404;2023-08-06T11:14:24;1.95;;;1.15;;
78322;SDS011;67583;50.616;-3.404;2023-08-06T11:16:50;2.15;;;1.60;;
78322;SDS011;67583;50.616;-3.404;2023-08-06T11:19:15;1.92;;;1.23;;
78322;SDS011;67583;50.616;-3.404;2023-08-06T11:21:41;5.40;;;1.60;;
78322;SDS011;67583;50.616;-3.404;2023-08-06T11:24:09;4.45;;;1.92;;
78322;SDS011;67583;50.616;-3.404;2023-08-06T11:26:36;3.42;;;1.60;;
78322;SDS011;67583;50.616;-3.404;2023-08-06T11:29:02;3.88;;;1.75;;
78322;SDS011;67583;50.616;-3.404;2023-08-06T11:31:28;3.30;;;1.92;;
78322;SDS011;67583;50.616;-3.404;2023-08-06T11:33:55;3.65;;;1.65;;
78322;SDS011;67583;50.616;-3.404;2023-08-06T11:38:55;4.03;;;1.77;;
78322;SDS011;67583;50.616;-3.404;2023-08-06T11:41:21;3.08;;;1.60;;
78322;SDS011;67583;50.616;-3.404;2023-08-06T11:43:47;3.75;;;1.65;;
78322;SDS011;67583;50.616;-3.404;2023-08-06T11:46:12;3.20;;;1.60;;
78322;SDS011;67583;50.616;-3.404;2023-08-06T11:48:50;4.32;;;1.90;;
78322;SDS011;67583;50.616;-3.404;2023-08-06T11:51:22;3.38;;;1.80;;
78322;SDS011;67583;50.616;-3.404;2023-08-06T11:53:48;2.58;;;1.90;;
78322;SDS011;67583;50.616;-3.404;2023-08-06T11:56:14;2.53;;;1.73;;
78322;SDS011;67583;50.616;-3.404;2023-08-06T11:58:41;4.90;;;2.08;;
78322;SDS011;67583;50.616;-3.404;2023-08-06T12:01:07;3.30;;;1.88;;
78322;SDS011;67583;50.616;-3.404;2023-08-06T12:03:32;2.20;;;1.60;;
78322;SDS011;67583;50.616;-3.404;2023-08-06T12:05:58;4.30;;;1.63;;
78322;SDS011;67583;50.616;-3.404;2023-08-06T12:08:26;2.40;;;1.48;;
78322;SDS011;67583;50.616;-3.404;2023-08-06T12:10:51;4.35;;;1.83;;
78322;SDS011;67583;50.616;-3.404;2023-08-06T12:13:18;3.30;;;1.88;;
78322;SDS011;67583;50.616;-3.404;2023-08-06T12:15:44;4.13;;;2.00;;
78322;SDS011;67583;50.616;-3.404;2023-08-06T12:18:10;2.85;;;1.85;;
78322;SDS011;67583;50.616;-3.404;2023-08-06T12:20:35;3.67;;;1.90;;
78322;SDS011;67583;50.616;-3.404;2023-08-06T12:23:01;1.90;;;1.25;;
78322;SDS011;67583;50.616;-3.404;2023-08-06T12:25:26;2.58;;;1.63;;
78322;SDS011;67583;50.616;-3.404;2023-08-06T12:27:52;3.03;;;1.50;;
78322;SDS011;67583;50.616;-3.404;2023-08-06T12:30:17;3.25;;;1.67;;
78322;SDS011;67583;50.616;-3.404;2023-08-06T12:32:42;3.05;;;1.58;;
78322;SDS011;67583;50.616;-3.404;2023-08-06T12:35:08;3.28;;;1.60;;
78322;SDS011;67583;50.616;-3.404;2023-08-06T12:37:34;1.67;;;1.20;;
78322;SDS011;67583;50.616;-3.404;2023-08-06T12:40:00;3.42;;;1.58;;
78322;SDS011;67583;50.616;-3.404;2023-08-06T12:42:25;2.42;;;1.25;;
78322;SDS011;67583;50.616;-3.404;2023-08-06T12:44:50;2.75;;;1.50;;
78322;SDS011;67583;50.616;-3.404;2023-08-06T12:47:16;3.33;;;1.50;;
78322;SDS011;67583;50.616;-3.404;2023-08-06T12:49:43;4.43;;;2.05;;
78322;SDS011;67583;50.616;-3.404;2023-08-06T12:52:09;3.47;;;1.33;;
78322;SDS011;67583;50.616;-3.404;2023-08-06T12:54:34;4.78;;;1.80;;
78322;SDS011;67583;50.616;-3.404;2023-08-06T12:57:04;2.53;;;1.33;;
78322;SDS011;67583;50.616;-3.404;2023-08-06T12:59:29;2.75;;;1.58;;
78322;SDS011;67583;50.616;-3.404;2023-08-06T13:01:55;4.05;;;1.33;;
78322;SDS011;67583;50.616;-3.404;2023-08-06T13:04:20;1.65;;;1.20;;
78322;SDS011;67583;50.616;-3.404;2023-08-06T13:06:46;3.30;;;1.75;;
78322;SDS011;67583;50.616;-3.404;2023-08-06T13:09:12;2.20;;;1.60;;
78322;SDS011;67583;50.616;-3.404;2023-08-06T13:11:38;2.55;;;1.45;;
78322;SDS011;67583;50.616;-3.404;2023-08-06T13:14:05;4.30;;;1.40;;
78322;SDS011;67583;50.616;-3.404;2023-08-06T13:16:31;4.03;;;1.45;;
78322;SDS011;67583;50.616;-3.404;2023-08-06T13:18:57;4.25;;;1.98;;
78322;SDS011;67583;50.616;-3.404;2023-08-06T13:21:22;3.10;;;1.77;;
78322;SDS011;67583;50.616;-3.404;2023-08-06T13:23:47;2.60;;;1.30;;
78322;SDS011;67583;50.616;-3.404;2023-08-06T13:26:13;2.10;;;1.48;;
78322;SDS011;67583;50.616;-3.404;2023-08-06T13:28:38;3.75;;;1.50;;
78322;SDS011;67583;50.616;-3.404;2023-08-06T13:31:04;4.50;;;1.60;;
78322;SDS011;67583;50.616;-3.404;2023-08-06T13:33:29;2.30;;;1.60;;
78322;SDS011;67583;50.616;-3.404;2023-08-06T13:35:55;2.63;;;1.55;;
78322;SDS011;67583;50.616;-3.404;2023-08-06T13:38:20;2.95;;;1.30;;
78322;SDS011;67583;50.616;-3.404;2023-08-06T13:40:45;4.55;;;1.58;;
78322;SDS011;67583;50.616;-3.404;2023-08-06T13:43:11;2.58;;;1.50;;
78322;SDS011;67583;50.616;-3.404;2023-08-06T13:45:37;2.38;;;1.40;;
78322;SDS011;67583;50.616;-3.404;2023-08-06T13:48:03;2.97;;;1.50;;
78322;SDS011;67583;50.616;-3.404;2023-08-06T13:50:28;2.78;;;1.20;;
78322;SDS011;67583;50.616;-3.404;2023-08-06T13:52:54;2.72;;;1.40;;
78322;SDS011;67583;50.616;-3.404;2023-08-06T13:55:20;3.42;;;1.63;;
78322;SDS011;67583;50.616;-3.404;2023-08-06T13:57:46;1.95;;;1.40;;
78322;SDS011;67583;50.616;-3.404;2023-08-06T14:00:12;3.00;;;1.67;;
78322;SDS011;67583;50.616;-3.404;2023-08-06T14:02:37;2.30;;;1.40;;
78322;SDS011;67583;50.616;-3.404;2023-08-06T14:05:03;3.97;;;1.50;;
78322;SDS011;67583;50.616;-3.404;2023-08-06T14:07:29;2.30;;;1.35;;
78322;SDS011;67583;50.616;-3.404;2023-08-06T14:09:54;2.80;;;1.60;;
78322;SDS011;67583;50.616;-3.404;2023-08-06T14:12:22;2.85;;;1.50;;
78322;SDS011;67583;50.616;-3.404;2023-08-06T14:14:47;2.78;;;1.67;;
78322;SDS011;67583;50.616;-3.404;2023-08-06T14:17:12;2.25;;;1.33;;
78322;SDS011;67583;50.616;-3.404;2023-08-06T14:19:38;4.10;;;1.52;;
78322;SDS011;67583;50.616;-3.404;2023-08-06T14:22:03;3.58;;;1.60;;
78322;SDS011;67583;50.616;-3.404;2023-08-06T14:24:29;2.30;;;1.40;;
78322;SDS011;67583;50.616;-3.404;2023-08-06T14:26:54;3.38;;;1.63;;
78322;SDS011;67583;50.616;-3.404;2023-08-06T14:29:19;4.38;;;1.83;;
78322;SDS011;67583;50.616;-3.404;2023-08-06T14:31:45;3.03;;;1.65;;
78322;SDS011;67583;50.616;-3.404;2023-08-06T14:34:10;1.48;;;1.23;;
78322;SDS011;67583;50.616;-3.404;2023-08-06T14:36:36;4.03;;;1.55;;
78322;SDS011;67583;50.616;-3.404;2023-08-06T14:39:01;4.65;;;1.45;;
78322;SDS011;67583;50.616;-3.404;2023-08-06T14:41:26;2.92;;;1.77;;
78322;SDS011;67583;50.616;-3.404;2023-08-06T14:43:52;4.95;;;1.65;;